x

Northwestern Hawaii One - 170 Nm West Northwest Of Kauai Island (51001) Wave Buoy

6:50pm - Tue 9th Feb 2016 All times are HST. -10 hours from GMT.

  • Sig Wave height 9.8ft
  • Swell Direction
  • Peak Period 11s
  • Average Period 8s
  • Wind
    18mph, 22mph gusts
  • Sea Temp 75°f
  • Air Temp 71°f
  • Sea Pressure 1016.5mb
  • Northwestern Hawaii One - 170 Nm West Northwest Of Kauai Island
  • Northwestern Hawaii One - 170 Nm West Northwest Of Kauai Island

More Historic Weather Station data

Upgrade to MSW Pro to gain access to the past 30 days of data for over 8000 Wavebouys and Weather Stations around the globe.

Join Pro

Comparision Forecast

View Surf forecast
   
Tue 02/09 6:50pm 10ft 11s 8s 18 22 mph 1016.5mb 75f 71f
6:40pm  -   -   -  18 22 mph 1016.5mb 75f 71f
6:30pm  -   -   -  18 22 mph 1016.5mb 75f 71f
6:20pm  -   -   -  18 22 mph 1016.4mb 75f 71f
6:10pm  -   -   -  18 22 mph 1016.3mb 75f 71f
6:00pm  -   -   -  18 22 mph 1016.1mb 75f 71f
5:50pm 10ft 12s 8s 18 22 mph 1016.1mb 75f 71f
5:40pm  -   -   -  16 22 mph 1016mb 75f 71f
5:30pm  -   -   -  16 20 mph 1015.8mb 75f 71f
5:20pm  -   -   -  16 20 mph 1015.8mb 75f 71f
5:10pm  -   -   -  13 18 mph 1015.6mb 75f 70f
5:00pm  -   -   -  16 20 mph 1015.5mb 75f 71f
4:50pm 9ft 11s 8s 16 20 mph 1015.5mb 75f 71f
4:40pm  -   -   -  16 22 mph 1015.5mb 75f 72f
4:30pm  -   -   -  13 18 mph 1015.4mb 75f 71f
4:20pm  -   -   -  13 18 mph 1015.3mb 75f 71f
4:10pm  -   -   -  13 18 mph 1015.1mb 75f 71f
4:00pm  -   -   -  18 22 mph 1015.1mb 75f 71f
3:50pm 9ft 11s 8s 16 20 mph 1015.1mb 75f 71f
3:40pm  -   -   -  18 22 mph 1015.1mb 75f 71f
3:30pm  -   -   -  13 18 mph 1015.1mb 75f 72f
3:20pm  -   -   -  16 22 mph 1015mb 75f 72f
3:10pm  -   -   -  16 18 mph 1015mb 75f 72f
3:00pm  -   -   -  16 20 mph 1015.1mb 75f 72f
2:50pm 9ft 10s 8s 16 20 mph 1015.1mb 75f 72f
2:40pm 9ft  -  8s 16 20 mph 1015.1mb 75f 72f
2:30pm  -   -   -  13 18 mph 1015.1mb 75f 72f
2:20pm  -   -   -  13 18 mph 1015.4mb 75f 72f
2:10pm  -   -   -  16 18 mph 1015.4mb 75f 72f
2:00pm  -   -   -  13 18 mph 1015.5mb 75f 72f
1:50pm 10.5ft 12s 8s 13 18 mph 1015.5mb 75f 72f
1:40pm  -   -   -  13 18 mph 1015.6mb 75f 72f
1:30pm  -   -   -  13 18 mph 1015.8mb 75f 72f
1:20pm  -   -   -  13 18 mph 1015.9mb 75f 72f
1:10pm  -   -   -  13 18 mph 1016mb 75f 73f
1:00pm  -   -   -  13 18 mph 1016mb 75f 73f
12:50pm  -   -   -   -  mph 1016.4mb 75f -
12:40pm  -   -   -  9 13 mph 1016.5mb - 72f
12:30pm  -   -   -  13 18 mph 1016.8mb 75f 72f
12:20pm  -   -   -  11 16 mph 1017mb 75f 72f
12:10pm  -   -   -  9 13 mph 1017.1mb 75f 72f
12:00pm  -   -   -  9 16 mph 1017.4mb 75f 72f
11:50am 9.5ft 12s 8s 11 16 mph 1017.5mb 75f 72f
11:40am  -   -   -  13 20 mph 1017.6mb 75f 72f
11:30am  -   -   -  13 18 mph 1017.6mb 75f 72f
11:20am  -   -   -  13 18 mph 1017.8mb 75f 72f
11:10am  -   -   -  11 18 mph 1017.9mb 75f 72f
11:00am  -   -   -  11 16 mph 1017.9mb 75f 72f
10:50am 9ft 11s 8s 11 18 mph 1017.9mb 75f 72f
10:40am  -   -   -  13 20 mph 1017.9mb 75f 72f
10:30am  -   -   -  13 20 mph 1017.8mb 75f 73f
10:20am  -   -   -  11 13 mph 1017.8mb 75f 73f
10:10am  -   -   -  11 18 mph 1017.5mb 75f 73f
10:00am  -   -   -  11 16 mph 1017.5mb 75f 73f
9:50am 9ft 11s 8s 9 13 mph 1017.5mb 75f 73f
9:40am  -   -   -  11 18 mph 1017.5mb 75f 73f
9:30am  -   -   -  11 16 mph 1017.4mb 75f 73f
9:20am  -   -   -  11 16 mph 1017.1mb 75f 73f
9:10am  -   -   -  9 13 mph 1017mb 75f 73f
9:00am  -   -   -  11 16 mph 1017mb 75f 73f
8:50am 8ft 11s 8s 11 16 mph 1016.9mb 75f 73f
8:40am  -   -   -  9 13 mph 1016.8mb 75f 73f
8:30am  -   -   -  9 13 mph 1016.5mb 75f 73f
8:20am  -   -   -  9 13 mph 1016.5mb 75f 72f
8:10am  -   -   -  9 13 mph 1016.4mb 75f 72f
8:00am  -   -   -  11 13 mph 1016.4mb 75f 72f
7:50am 9ft 11s 8s 11 16 mph 1016.4mb 75f 72f
7:40am  -   -   -  13 18 mph 1016.3mb 75f 72f
7:30am  -   -   -  13 20 mph 1016.1mb 75f 73f
7:20am  -   -   -  11 16 mph 1016mb 75f 72f
7:10am  -   -   -  11 18 mph 1016mb 75f 72f
7:00am  -   -   -  11 16 mph 1016mb 75f 72f
6:50am 9ft 11s 7s 13 18 mph 1015.9mb 75f 72f
6:40am  -   -   -  11 16 mph 1015.9mb 75f 72f
6:30am  -   -   -  11 18 mph 1015.9mb 75f 72f
6:20am  -   -   -  13 18 mph 1015.8mb 75f 72f
6:10am  -   -   -  11 18 mph 1015.6mb 75f 72f
6:00am  -   -   -  13 20 mph 1015.5mb 75f 72f
5:50am 9ft 10s 7s 13 18 mph 1015.4mb 75f 72f
5:40am  -   -   -  13 18 mph 1015.4mb 75f 72f
5:30am  -   -   -  11 16 mph 1015.4mb 75f 72f
5:20am  -   -   -  13 18 mph 1015.1mb 75f 72f
5:10am  -   -   -  13 18 mph 1015.1mb 75f 72f
5:00am  -   -   -  13 18 mph 1015.1mb 75f 72f
4:50am 9ft 12s 7s 16 20 mph 1015mb 75f 72f
4:40am  -   -   -  16 20 mph 1015mb 75f 72f
4:30am  -   -   -  16 20 mph 1015mb 75f 72f
4:20am  -   -   -  16 20 mph 1015mb 75f 72f
4:10am  -   -   -  16 20 mph 1015mb 75f 72f
4:00am  -   -   -  16 27 mph 1015mb 75f 72f
3:50am  -   -   -   -  mph 1015mb 75f -
3:40am  -   -   -  16 20 mph 1015.1mb - 71f
3:30am  -   -   -  18 22 mph 1015mb 75f 72f
3:20am  -   -   -  18 22 mph 1015.1mb 75f 71f
3:10am  -   -   -  18 25 mph 1015mb 75f 71f
3:00am  -   -   -  18 25 mph 1015.1mb 75f 71f
2:50am 9ft 12s 7s 18 22 mph 1015.3mb 75f 71f
2:40am  -   -   -  18 25 mph 1015.4mb 75f 72f
2:30am  -   -   -  18 25 mph 1015.5mb 75f 71f
2:20am  -   -   -  18 25 mph 1015.6mb 75f 71f
2:10am  -   -   -  18 25 mph 1015.8mb 75f 72f
2:00am  -   -   -  18 25 mph 1016mb 75f 71f
1:50am 9ft 13s 7s 18 25 mph 1016mb 75f 71f
1:40am  -   -   -  20 25 mph 1016.1mb 75f 71f
1:30am  -   -   -  20 25 mph 1016.3mb 75f 71f
1:20am  -   -   -  18 25 mph 1016.3mb 75f 72f
1:10am  -   -   -  18 22 mph 1016.3mb 75f 71f
1:00am  -   -   -  18 25 mph 1016.3mb 75f 71f
12:50am 10.5ft 13s 8s 16 22 mph 1016.4mb 75f 71f
12:40am  -   -   -  18 25 mph 1016.4mb 75f 71f
12:30am  -   -   -  18 22 mph 1016.4mb 75f 71f
12:20am  -   -   -  18 25 mph 1016.4mb 75f 71f
12:10am  -   -   -  18 25 mph 1016.5mb 75f 71f
12:00am  -   -   -  20 25 mph 1016.5mb 75f 71f
Mon 02/08 11:50pm 9.5ft 14s 8s 20 25 mph 1016.5mb 75f 71f
11:40pm  -   -   -  18 22 mph 1016.6mb 75f 71f
11:30pm  -   -   -  18 22 mph 1016.6mb 75f 71f
11:20pm  -   -   -  18 25 mph 1016.9mb 75f 71f
11:10pm  -   -   -  18 22 mph 1016.8mb 75f 72f
11:00pm  -   -   -  18 25 mph 1016.9mb 75f 72f
10:50pm 9.5ft 13s 8s 18 22 mph 1016.9mb 75f 72f
10:40pm  -   -   -  18 22 mph 1017mb 75f 72f
10:30pm  -   -   -  18 22 mph 1017mb 75f 71f
10:20pm  -   -   -  16 20 mph 1016.9mb 75f 71f
10:10pm  -   -   -  18 25 mph 1017mb 75f 71f
10:00pm  -   -   -  16 22 mph 1017mb 75f 71f
9:50pm 10ft 13s 8s 18 22 mph 1017.1mb 75f 71f
9:40pm  -   -   -  18 25 mph 1017.1mb 75f 71f
9:30pm  -   -   -  18 22 mph 1017mb 75f 71f
9:20pm  -   -   -  18 25 mph 1017mb 75f 71f
9:10pm  -   -   -  18 25 mph 1017mb 75f 71f
9:00pm  -   -   -  18 22 mph 1017mb 75f 71f
8:50pm 9.5ft 13s 8s 18 27 mph 1017mb 75f 71f
8:40pm  -   -   -  18 22 mph 1016.9mb 75f 71f
8:30pm  -   -   -  18 22 mph 1016.9mb 75f 71f
8:20pm  -   -   -  18 22 mph 1016.6mb 75f 71f
8:10pm  -   -   -  18 25 mph 1016.5mb 75f 71f
8:00pm  -   -   -  18 22 mph 1016.4mb 75f 71f
7:50pm 11ft 14s 9s 18 22 mph 1016.1mb 75f 71f
7:40pm  -   -   -  18 22 mph 1016.1mb 75f 71f
7:30pm  -   -   -  18 22 mph 1016mb 75f 70f
7:20pm  -   -   -  16 20 mph 1015.9mb 75f 70f
7:10pm  -   -   -  18 22 mph 1015.9mb 75f 70f
7:00pm  -   -   -  16 22 mph 1015.8mb 75f 70f
6:50pm 10ft 14s 9s 16 20 mph 1015.6mb 75f 70f
6:40pm  -   -   -  16 22 mph 1015.5mb 75f 70f
6:30pm  -   -   -  16 20 mph 1015.5mb 75f 70f
6:20pm  -   -   -  16 20 mph 1015.5mb 75f 70f
6:10pm  -   -   -  16 22 mph 1015.4mb 75f 70f
6:00pm  -   -   -  16 20 mph 1015.4mb 75f 70f
5:50pm 11ft 14s 9s 16 20 mph 1015.3mb 75f 70f
5:40pm  -   -   -  18 22 mph 1015.1mb 75f 70f
5:30pm  -   -   -  16 20 mph 1015mb 75f 70f
5:20pm  -   -   -  16 22 mph 1014.9mb 75f 70f
5:10pm  -   -   -  16 22 mph 1014.6mb 75f 70f
5:00pm  -   -   -  16 20 mph 1014.5mb 75f 70f
4:50pm 11ft 13s 9s 16 20 mph 1014.5mb 75f 70f
4:40pm  -   -   -  16 20 mph 1014.5mb 75f 70f
4:30pm  -   -   -  16 22 mph 1014.5mb 75f 70f
4:20pm  -   -   -  16 20 mph 1014.4mb 75f 70f
4:10pm  -   -   -  16 20 mph 1014.3mb 75f 70f
4:00pm  -   -   -  16 20 mph 1014.3mb 75f 70f
3:50pm 12ft 14s 9s 13 20 mph 1014.1mb 76f 70f
3:40pm  -   -   -  16 20 mph 1014.3mb 76f 70f
3:30pm  -   -   -  13 18 mph 1014.4mb 76f 70f
3:20pm  -   -   -  13 20 mph 1014.4mb 76f 70f
3:10pm  -   -   -  13 18 mph 1014.5mb 76f 70f
3:00pm  -   -   -  13 20 mph 1014.5mb 76f 70f
2:50pm 11ft 15s 9s 13 18 mph 1014.6mb 76f 69f
2:40pm  -   -   -  13 18 mph 1014.9mb 76f 69f
2:30pm  -   -   -  11 18 mph 1015mb 76f 69f
2:20pm  -   -   -  13 18 mph 1015.3mb 76f 69f
2:10pm  -   -   -  11 20 mph 1015.5mb 76f 69f
2:00pm  -   -   -  11 16 mph 1015.6mb 76f 69f
1:50pm 12.5ft 14s 10s 11 16 mph 1015.9mb 76f 69f
1:40pm  -   -   -  11 16 mph 1016.1mb 76f 69f
1:30pm  -   -   -  11 16 mph 1016.1mb 76f 69f
1:20pm  -   -   -  9 13 mph 1016.3mb 76f 69f
1:10pm  -   -   -  9 13 mph 1016.5mb 76f 69f
1:00pm  -   -   -  9 13 mph 1016.5mb 76f 69f
12:50pm  -   -   -  9 16 mph 1016.8mb 76f 69f
12:40pm  -   -   -  9 16 mph 1017mb 76f 69f
12:30pm  -   -   -  9 16 mph 1017mb 76f 69f
12:20pm  -   -   -  9 11 mph 1017.4mb 76f 69f
12:10pm  -   -   -  9 13 mph 1017.5mb 76f 69f
12:00pm  -   -   -  9 16 mph 1018mb 76f 69f
11:50am 11.5ft 13s 9s 11 13 mph 1018.3mb 76f 69f
11:40am  -   -   -  11 16 mph 1018.6mb 76f 69f
11:30am  -   -   -  11 18 mph 1018.9mb 76f 69f
11:20am  -   -   -  11 16 mph 1019mb 76f 69f
11:10am  -   -   -  11 16 mph 1019.1mb 76f 69f
11:00am  -   -   -  13 18 mph 1019.3mb 76f 69f
10:50am 13ft 11s 10s 11 16 mph 1019.3mb 76f 69f
10:40am  -   -   -  11 16 mph 1019.3mb 76f 69f
10:30am  -   -   -  9 16 mph 1019.1mb 76f 69f
10:20am  -   -   -  7 13 mph 1019mb 76f 69f
10:10am  -   -   -  9 13 mph 1018.9mb 75f 69f
10:00am  -   -   -  9 13 mph 1018.9mb 76f 69f
9:50am 11.5ft 12s 9s 7 11 mph 1019mb 76f 69f
9:40am  -   -   -  7 11 mph 1019mb 76f 69f
9:30am  -   -   -  7 11 mph 1019mb 76f 69f
9:20am  -   -   -  7 11 mph 1019mb 76f 69f
9:10am  -   -   -  7 11 mph 1019mb 76f 69f
9:00am  -   -   -  4 11 mph 1018.9mb 76f 69f
8:50am 11ft 12s 9s 7 13 mph 1019mb 75f 69f
8:40am  -   -   -  7 11 mph 1018.9mb 76f 69f
8:30am  -   -   -  7 11 mph 1018.6mb 76f 69f
8:20am  -   -   -  7 11 mph 1018.6mb 76f 68f
8:10am  -   -   -  7 11 mph 1018.5mb 76f 68f
8:00am  -   -   -  7 11 mph 1018.4mb 76f 68f
7:50am 12ft 12s 9s 4 11 mph 1018.3mb 76f 68f
7:40am 12ft  -  9s 2 7 mph 1018.1mb 76f 68f
7:30am  -   -   -  4 11 mph 1018mb 76f 68f
7:20am  -   -   -  2 9 mph 1018mb 76f 68f
7:10am  -   -   -  4 9 mph 1017.9mb 76f 68f
7:00am  -   -   -  4 11 mph 1017.8mb 76f 68f
6:50am 13ft 12s 9s 2 4 mph 1017.8mb 76f 68f
6:40am  -   -   -  4 11 mph 1017.8mb 76f 68f
6:30am  -   -   -  2 9 mph 1017.6mb 76f 68f
6:20am  -   -   -  4 7 mph 1017.6mb 76f 68f
6:10am  -   -   -  7 11 mph 1017.9mb 76f 68f
6:00am  -   -   -  4 13 mph 1018mb 76f 68f
5:50am 11ft 11s 9s 4 9 mph 1018mb 76f 68f
5:40am  -   -   -  7 11 mph 1018mb 76f 68f
5:30am  -   -   -  9 13 mph 1018.1mb 76f 68f
5:20am  -   -   -  9 16 mph 1018.1mb 76f 68f
5:10am  -   -   -  9 13 mph 1018.3mb 76f 68f
5:00am  -   -   -  9 16 mph 1018.3mb 76f 68f
4:50am 13ft 12s 9s 9 18 mph 1018.3mb 76f 68f
4:40am  -   -   -  11 18 mph 1018.4mb 76f 68f
4:30am  -   -   -  11 18 mph 1018.5mb 76f 68f
4:20am  -   -   -  11 16 mph 1018.5mb 76f 68f
4:10am  -   -   -  11 16 mph 1018.5mb 76f 68f
4:00am  -   -   -  9 18 mph 1018.4mb 76f 68f
3:50am 12.5ft 11s 9s 11 20 mph 1018.1mb 76f 68f
3:40am  -   -   -  9 16 mph 1018.3mb 76f 68f
3:30am  -   -   -  11 18 mph 1018.1mb 76f 68f
3:20am  -   -   -  11 16 mph 1018.1mb 76f 68f
3:10am  -   -   -  11 20 mph 1018.3mb 76f 68f
3:00am  -   -   -  11 18 mph 1018.3mb 76f 68f
2:50am 13ft 12s 9s 11 20 mph 1018.4mb 76f 67f
2:40am  -   -   -  9 16 mph 1018.5mb 76f 67f
2:30am  -   -   -  9 13 mph 1018.5mb 76f 67f
2:20am  -   -   -  7 16 mph 1018.5mb 76f 67f
2:10am  -   -   -  7 16 mph 1018.5mb 76f 67f
2:00am  -   -   -  7 13 mph 1018.4mb 76f 67f
1:50am 11.5ft 12s 9s 9 13 mph 1018.5mb 76f 67f
1:40am 11.5ft  -  9s 11 18 mph 1018.9mb 76f 67f
1:30am  -   -   -  13 20 mph 1019mb 76f 67f
1:20am  -   -   -  13 18 mph 1019.1mb 76f 67f
1:10am  -   -   -  16 20 mph 1019mb 76f 68f
1:00am  -   -   -  13 18 mph 1019mb 76f 68f
12:50am 11.5ft 12s 8s 13 18 mph 1018.9mb 76f 68f
12:40am  -   -   -  16 22 mph 1019mb 76f 67f
12:30am  -   -   -  11 18 mph 1019mb 76f 67f
12:20am  -   -   -  13 18 mph 1019.1mb 76f 67f
12:10am  -   -   -  13 20 mph 1019.4mb 76f 67f
12:00am  -   -   -  16 20 mph 1019.4mb 76f 67f
Sun 02/07 11:50pm 11ft 12s 8s 13 22 mph 1019.5mb 76f 67f
11:40pm 11ft  -  8s 16 20 mph 1019.8mb 76f 67f
11:30pm  -   -   -  16 20 mph 1019.8mb 76f 67f
11:20pm  -   -   -  13 18 mph 1019.5mb 76f 67f
11:10pm  -   -   -  13 20 mph 1019.5mb 76f 67f
11:00pm  -   -   -  13 20 mph 1019.5mb 76f 67f
10:50pm 12ft 12s 8s 16 22 mph 1019.8mb 76f 67f
10:40pm  -   -   -  16 25 mph 1020mb 76f 67f
10:30pm  -   -   -  18 25 mph 1020mb 76f 67f
10:20pm  -   -   -  18 27 mph 1020.1mb 76f 67f
10:10pm  -   -   -  18 22 mph 1020.3mb 76f 67f
10:00pm  -   -   -  18 25 mph 1020.3mb 76f 67f
9:50pm 10.5ft 12s 8s 18 25 mph 1020mb 76f 67f
9:40pm  -   -   -  18 25 mph 1020mb 76f 67f
9:30pm  -   -   -  18 27 mph 1020mb 76f 67f
9:20pm  -   -   -  18 25 mph 1020mb 76f 67f
9:10pm  -   -   -  16 22 mph 1020mb 76f 67f
9:00pm  -   -   -  18 25 mph 1019.9mb 76f 67f
8:50pm 10.5ft 12s 8s 18 22 mph 1020mb 76f 67f
8:40pm  -   -   -  16 25 mph 1019.9mb 76f 67f
8:30pm  -   -   -  18 25 mph 1019.8mb 76f 67f
8:20pm  -   -   -  16 25 mph 1019.6mb 76f 67f
8:10pm  -   -   -  18 22 mph 1019.5mb 76f 66f
8:00pm  -   -   -  18 27 mph 1019.4mb 76f 66f
7:50pm 10.5ft 12s 8s 18 22 mph 1019.3mb 76f 66f
7:40pm  -   -   -  16 22 mph 1019mb 76f 66f
7:30pm  -   -   -  16 22 mph 1018.9mb 76f 66f
7:20pm  -   -   -  16 22 mph 1018.9mb 76f 66f
7:10pm  -   -   -  16 22 mph 1018.8mb 76f 66f
7:00pm  -   -   -  16 22 mph 1019mb 76f 66f
6:50pm 11ft 12s 8s 16 22 mph 1019mb 76f 66f
6:40pm  -   -   -  16 22 mph 1019mb 76f 66f
6:30pm  -   -   -  18 25 mph 1019.3mb 76f 66f
6:20pm  -   -   -  18 27 mph 1019.3mb 76f 66f
6:10pm  -   -   -  20 25 mph 1019.4mb 76f 66f
6:00pm  -   -   -  20 25 mph 1019.3mb 76f 66f
5:50pm 10ft 11s 8s 20 27 mph 1019.1mb 76f 66f
5:40pm  -   -   -  20 25 mph 1019.1mb 76f 67f
5:30pm  -   -   -  18 25 mph 1019.1mb 76f 67f
5:20pm  -   -   -  20 27 mph 1019mb 76f 67f
5:10pm  -   -   -  20 27 mph 1019.1mb 76f 67f
5:00pm  -   -   -  18 25 mph 1019mb 76f 67f
4:50pm 11ft 12s 8s 18 22 mph 1019.3mb 76f 67f
4:40pm  -   -   -  18 25 mph 1019.1mb 76f 67f
4:30pm  -   -   -  18 25 mph 1019.1mb 76f 67f
4:20pm  -   -   -  18 25 mph 1019mb 76f 67f
4:10pm  -   -   -  18 27 mph 1019.1mb 76f 67f
4:00pm  -   -   -  18 27 mph 1019.1mb 76f 67f
3:50pm 12ft 11s 8s 18 25 mph 1019.1mb 76f 66f
3:40pm  -   -   -  20 29 mph 1019mb 76f 67f
3:30pm  -   -   -  18 25 mph 1019mb 76f 67f
3:20pm  -   -   -  18 25 mph 1019mb 76f 67f
3:10pm  -   -   -  18 25 mph 1019mb 76f 67f
3:00pm  -   -   -  18 27 mph 1019mb 76f 67f
2:50pm 12ft 11s 8s 16 22 mph 1019mb 76f 67f
2:40pm  -   -   -  18 25 mph 1019.1mb 76f 67f
2:30pm  -   -   -  16 25 mph 1019.1mb 76f 67f
2:20pm  -   -   -  18 25 mph 1019.1mb 76f 67f
2:10pm  -   -   -  18 25 mph 1019.5mb 76f 67f
2:00pm  -   -   -  16 22 mph 1019.5mb 76f -
1:50pm 13ft 11s 8s 16 22 mph 1019.5mb 76f 67f
1:40pm  -   -   -  16 22 mph 1019.8mb 76f 67f
1:30pm  -   -   -  16 22 mph 1020mb 76f 67f
1:20pm  -   -   -  18 25 mph 1020.3mb 76f 67f
1:10pm  -   -   -  18 25 mph 1020.5mb 76f 67f
1:00pm  -   -   -  18 25 mph 1020.5mb 76f 67f
12:50pm 12.5ft 12s 8s 18 25 mph 1020.6mb 76f 67f
12:40pm 12.5ft  -  8s 18 25 mph 1020.9mb 76f 66f
12:30pm  -   -   -  16 25 mph 1021mb 76f 67f
12:20pm  -   -   -  16 25 mph 1021mb 76f 66f
12:10pm  -   -   -  18 25 mph 1021mb 76f 66f
12:00pm  -   -   -  16 25 mph 1021.3mb 76f 67f
11:50am 12.5ft 11s 8s 18 22 mph 1021.5mb 76f 66f
11:40am  -   -   -  18 25 mph 1021.5mb 76f 67f
11:30am  -   -   -  20 27 mph 1021.5mb - 66f
11:20am  -   -   -  20 27 mph 1021.5mb 76f 67f
11:10am  -   -   -  18 25 mph 1021.6mb 76f 67f
11:00am  -   -   -  18 25 mph 1021.5mb 76f 67f
10:50am 12.5ft 11s 8s 18 22 mph 1021.5mb 76f 66f
10:40am  -   -   -  18 25 mph 1021.5mb 76f 67f
10:30am  -   -   -  16 22 mph 1021.5mb 76f 67f
10:20am  -   -   -  18 25 mph 1021.3mb 76f 66f
10:10am  -   -   -  20 27 mph 1021.3mb 76f 67f
10:00am  -   -   -  18 27 mph 1021.1mb 76f 67f
9:50am 12ft 11s 8s 20 27 mph 1021mb 76f 67f
9:40am 12ft  -  8s 20 25 mph 1021.1mb 76f 67f
9:30am  -   -   -  20 27 mph 1021mb 76f 67f
9:20am  -   -   -  18 27 mph 1021mb 76f 67f
9:10am  -   -   -  18 25 mph 1020.9mb 76f 67f
9:00am  -   -   -  18 22 mph 1020.9mb 76f 67f
8:50am 12ft 12s 8s 18 25 mph 1020.8mb 76f 67f
8:40am  -   -   -  18 27 mph 1020.5mb 76f 67f
8:30am  -   -   -  20 27 mph 1020.5mb 76f 67f
8:20am  -   -   -  18 25 mph 1020.4mb 76f 67f
8:10am  -   -   -  18 25 mph 1020.4mb 76f 66f
8:00am  -   -   -  18 27 mph 1020.1mb 76f 66f
7:50am 12ft 11s 8s 18 25 mph 1020.1mb 76f 66f
7:40am  -   -   -  18 27 mph 1020mb 76f 67f
7:30am  -   -   -  16 22 mph 1020mb 76f 67f
7:20am  -   -   -  18 27 mph 1020.1mb 76f 67f
7:10am  -   -   -  20 27 mph 1020.1mb 76f 66f
7:00am  -   -   -  22 29 mph 1020.1mb 76f 67f
6:50am 12.5ft 11s 8s 20 29 mph 1020.1mb 76f 67f
6:40am  -   -   -  22 29 mph 1020.3mb 76f 67f
6:30am  -   -   -  22 29 mph 1020mb 76f 67f
6:20am  -   -   -  20 27 mph 1020mb 76f 66f
6:10am  -   -   -  20 27 mph 1019.8mb 76f 66f
6:00am  -   -   -  20 27 mph 1019.8mb 76f 67f
5:50am 14ft 11s 8s 22 31 mph 1019.8mb 76f 66f
5:40am  -   -   -  25 31 mph 1019.8mb 76f 67f
5:30am  -   -   -  22 31 mph 1019.5mb 76f 67f
5:20am  -   -   -  22 29 mph 1019.3mb 76f 67f
5:10am  -   -   -  22 31 mph 1019.3mb 76f 67f
5:00am  -   -   -  22 31 mph 1019mb 76f 67f
4:50am 13ft 11s 8s 25 31 mph 1019.3mb 76f 67f
4:40am  -   -   -  25 31 mph 1019.3mb 76f 67f
4:30am  -   -   -  25 36 mph 1019mb 76f 67f
4:20am  -   -   -  22 31 mph 1019mb 76f 67f
4:10am  -   -   -  25 34 mph 1019mb 76f 67f
4:00am  -   -   -  27 36 mph 1019.3mb - 67f
3:50am 11.5ft 11s 7s 25 34 mph 1019.1mb 76f 67f
3:40am  -   -   -  25 34 mph 1019.1mb 76f 67f
3:30am  -   -   -  22 29 mph 1019.3mb 76f 67f
3:20am  -   -   -  22 31 mph 1019mb 76f 67f
3:10am  -   -   -  22 29 mph 1019mb 76f 67f
3:00am  -   -   -  22 34 mph 1019.1mb 76f 67f
2:50am 12.5ft 11s 7s 25 31 mph 1019.4mb 76f 67f
2:40am  -   -   -  25 34 mph 1019.5mb 76f 67f
2:30am  -   -   -  25 36 mph 1019.5mb 76f 67f
2:20am  -   -   -  22 29 mph 1019.5mb 76f 67f
2:10am  -   -   -  22 31 mph 1019.6mb 76f 67f
2:00am  -   -   -  22 31 mph 1019.4mb 76f 67f
1:50am 12.5ft 11s 7s 20 29 mph 1019.9mb 76f 67f
1:40am  -   -   -  22 31 mph 1019.6mb 76f 67f
1:30am  -   -   -  25 29 mph 1019.6mb 76f 67f
1:20am  -   -   -  20 29 mph 1019.6mb 76f 67f
1:10am  -   -   -  18 27 mph 1019.8mb 76f 67f
1:00am  -   -   -  22 31 mph 1020mb 76f 67f
12:50am 11.5ft 10s 7s 25 31 mph 1020.1mb 76f 67f
12:40am  -   -   -  25 31 mph 1020mb 76f 67f
12:30am  -   -   -  25 34 mph 1019.9mb 76f 67f
12:20am  -   -   -  25 31 mph 1019.5mb 76f 67f
12:10am  -   -   -  22 29 mph 1019.9mb 76f 67f
12:00am  -   -   -  22 31 mph 1019.9mb 76f 67f
Sat 02/06 11:50pm 12.5ft 10s 7s 22 29 mph 1019.9mb 76f 67f
11:40pm  -   -   -  22 29 mph 1019.9mb 76f 67f
11:30pm  -   -   -  22 29 mph 1020.1mb 76f 67f
11:20pm  -   -   -  25 34 mph 1020mb 76f 67f
11:10pm  -   -   -  25 34 mph 1019.9mb 76f 67f
11:00pm  -   -   -  22 31 mph 1020mb 76f 67f
10:50pm 10.5ft 9s 7s 22 31 mph 1020mb 76f 67f
10:40pm  -   -   -  22 31 mph 1020mb 76f 67f
10:30pm  -   -   -  25 34 mph 1019.9mb 76f 67f
10:20pm  -   -   -  25 31 mph 1019.6mb 76f 67f
10:10pm  -   -   -  22 31 mph 1019.8mb 76f 68f
10:00pm  -   -   -  22 29 mph 1019.8mb 76f 67f
9:50pm 10.5ft 9s 7s 25 34 mph 1019.5mb 76f 68f
9:40pm  -   -   -  27 31 mph 1019.5mb 76f 68f
9:30pm  -   -   -  25 31 mph 1019.3mb 76f 68f
9:20pm  -   -   -  25 31 mph 1019mb 76f 68f
9:10pm  -   -   -  22 29 mph 1019.1mb 76f 67f
9:00pm  -   -   -  27 34 mph 1019.1mb 76f 68f
8:50pm 11ft 8s 7s 22 31 mph 1019mb 76f 68f
8:40pm  -   -   -  25 31 mph 1019mb 76f 68f
8:30pm  -   -   -  22 29 mph 1018.9mb 76f 68f
8:20pm  -   -   -  22 34 mph 1018.8mb 76f 68f
8:10pm  -   -   -  25 31 mph 1018.5mb 76f 68f
8:00pm  -   -   -  22 31 mph 1018.5mb 76f 68f
7:50pm 10.5ft 8s 7s 22 31 mph 1018.4mb 76f 68f
7:40pm 10.5ft  -  7s 25 34 mph 1018.1mb 76f 68f
7:30pm  -   -   -  25 31 mph 1018.3mb 76f 68f
7:20pm  -   -   -  22 31 mph 1018.1mb 76f 68f
7:10pm  -   -   -  25 31 mph 1018.3mb 76f 68f
7:00pm  -   -   -  25 31 mph 1018.1mb 76f 68f
6:50pm 11ft 10s 7s 25 31 mph 1018mb 76f 68f
6:40pm  -   -   -  27 34 mph 1017.8mb 76f 68f
6:30pm  -   -   -  27 34 mph 1017.8mb 76f 68f
6:20pm  -   -   -  27 34 mph 1018mb 76f 68f
6:10pm  -   -   -  27 36 mph 1017.8mb 76f 68f
6:00pm  -   -   -  27 34 mph 1017.5mb 76f 68f
5:50pm 10.5ft 9s 7s 27 36 mph 1017.1mb 76f 68f
5:40pm 10.5ft  -  7s 29 36 mph 1017.4mb 76f 68f
5:30pm  -   -   -  25 31 mph 1017.5mb 76f 68f
5:20pm  -   -   -  27 34 mph 1017.3mb 76f 68f
5:10pm  -   -   -  27 34 mph 1017mb 76f 68f
5:00pm  -   -   -  27 34 mph 1017.1mb 76f 68f
4:50pm 11ft 9s 7s 27 36 mph 1017mb 76f 68f
4:40pm  -   -   -  27 36 mph 1016.9mb 76f 68f
4:30pm  -   -   -  27 34 mph 1016.9mb 76f 68f
4:20pm  -   -   -  27 34 mph 1017mb 76f 68f
4:10pm  -   -   -  27 34 mph 1016.6mb 76f 68f
4:00pm  -   -   -  27 36 mph 1016.5mb 76f 69f
3:50pm 10.5ft 10s 7s 27 34 mph 1016.5mb 76f 69f
3:40pm  -   -   -  22 31 mph 1016.5mb 76f 70f
3:30pm  -   -   -  22 31 mph 1016.3mb 76f 70f
3:20pm  -   -   -  22 29 mph 1016.1mb 76f 70f
3:10pm  -   -   -  22 29 mph 1016.1mb 76f 70f
3:00pm  -   -   -  22 29 mph 1016mb 76f 70f
2:50pm 10.5ft 11s 7s 22 31 mph 1016mb 76f 70f
2:40pm 10.5ft  -  7s 22 29 mph 1015.9mb 76f 70f
2:30pm  -   -   -  22 29 mph 1016mb 76f 71f
2:20pm  -   -   -  22 29 mph 1016mb 76f 71f
2:10pm  -   -   -  22 29 mph 1016mb 76f 71f
2:00pm  -   -   -  22 31 mph 1016mb 76f 71f
1:50pm 9ft 11s 7s 25 31 mph 1016.3mb - 71f
1:40pm  -   -   -  22 29 mph 1016.5mb 76f 70f
1:30pm  -   -   -  22 29 mph 1016.5mb 76f 70f
1:20pm  -   -   -  22 29 mph 1016.5mb 76f 70f
1:10pm  -   -   -  22 29 mph 1016.6mb 76f 70f
1:00pm  -   -   -  22 29 mph 1016.6mb 76f 70f
12:50pm  -   -   -  22 29 mph 1016.6mb 76f 70f
12:40pm  -   -   -  22 27 mph 1016.8mb 76f 70f
12:30pm  -   -   -  20 27 mph 1017mb 76f 70f
12:20pm  -   -   -  20 27 mph 1017.1mb 76f 70f
12:10pm  -   -   -  20 27 mph 1017.3mb 76f 70f
12:00pm  -   -   -  20 29 mph 1017.3mb 76f 70f
11:50am 8.5ft 10s 7s 22 29 mph 1017mb 76f 70f
11:40am  -   -   -  20 27 mph 1017.1mb 76f 70f
11:30am  -   -   -  22 29 mph 1017.4mb 76f 70f
11:20am  -   -   -  22 29 mph 1017.4mb 76f 70f
11:10am  -   -   -  20 27 mph 1017.5mb 76f 70f
11:00am  -   -   -  20 27 mph 1017.3mb 76f 70f
10:50am 9ft 11s 7s 22 29 mph 1017.5mb 76f 70f
10:40am  -   -   -  20 27 mph 1017.4mb 76f 70f
10:30am  -   -   -  20 29 mph 1017.5mb 76f 70f
10:20am  -   -   -  20 27 mph 1017.4mb 76f 70f
10:10am  -   -   -  20 27 mph 1017.1mb 76f 69f
10:00am  -   -   -  20 27 mph 1017mb 76f 69f
9:50am 8.5ft 11s 7s 20 29 mph 1016.9mb 76f 69f
9:40am  -   -   -  20 27 mph 1016.6mb 76f 70f
9:30am  -   -   -  18 25 mph 1016.5mb 76f 71f
9:20am  -   -   -  18 25 mph 1016.4mb 76f 71f
9:10am  -   -   -  18 25 mph 1016.1mb 76f 71f
9:00am  -   -   -  18 27 mph 1016mb 76f 71f
8:50am  -   -   -  20 27 mph 1016mb 76f 71f
8:40am  -   -   -  20 27 mph 1016.5mb 76f 70f
8:30am  -   -   -  20 27 mph 1016.3mb 76f 71f
8:20am  -   -   -  22 27 mph 1016.5mb 76f 71f
8:10am  -   -   -  20 27 mph 1016.1mb 76f 71f
8:00am  -   -   -  20 27 mph 1016mb 76f 71f
7:50am 8.5ft 11s 6s 22 27 mph 1015.9mb 76f 71f
7:40am  -   -   -  22 27 mph 1015.6mb 76f 70f
7:30am  -   -   -  25 29 mph 1015.5mb 76f 70f
7:20am  -   -   -  22 27 mph 1015.5mb 76f 69f
7:10am  -   -   -  22 27 mph 1015.5mb 77f 69f
7:00am  -   -   -  22 27 mph 1015.4mb 76f 69f
6:50am 7.5ft 11s 6s 22 27 mph 1015.4mb 77f 69f
6:40am  -   -   -  25 29 mph 1015.3mb 77f 69f
6:30am  -   -   -  25 31 mph 1015mb 77f 69f
6:20am  -   -   -  22 29 mph 1015mb 76f 69f
6:10am  -   -   -  25 29 mph 1014.8mb 77f 69f
6:00am  -   -   -  25 31 mph 1014.9mb 77f 69f
5:50am  -   -   -  27 34 mph 1014.8mb 77f 69f
5:40am  -   -   -  25 34 mph 1014.6mb 77f 69f